Time;durP1;ratioP1;P1;durP2;ratioP2;P2;SDS_P1;SDS_P2;PMS_P1;PMS_P2;Temp;Humidity;BMP_temperature;BMP_pressure;BME280_temperature;BME280_humidity;BME280_pressure;Samples;Min_cycle;Max_cycle;Signal;HPM_P1;HPM_P2
2022/01/08 00:01:59;;;;;;;2.33;1.03;;;21.80;32.30;;;;;;5093662;28;20746;-66
2022/01/08 00:04:25;;;;;;;2.22;1.20;;;21.80;32.30;;;;;;5094242;28;20418;-65
2022/01/08 00:06:51;;;;;;;2.10;1.17;;;21.70;32.10;;;;;;5094008;28;20385;-69
2022/01/08 00:09:17;;;;;;;1.70;0.90;;;21.70;32.20;;;;;;5092865;28;20410;-65
2022/01/08 00:11:42;;;;;;;2.20;1.02;;;21.80;32.20;;;;;;5093781;28;20386;-66
2022/01/08 00:14:10;;;;;;;1.40;0.90;;;21.80;32.10;;;;;;5093845;28;20375;-66
2022/01/08 00:16:37;;;;;;;1.52;1.00;;;21.80;32.10;;;;;;5093905;28;20424;-66
2022/01/08 00:19:04;;;;;;;2.00;1.08;;;21.80;32.10;;;;;;5093909;28;20922;-68
2022/01/08 00:21:30;;;;;;;1.50;0.93;;;21.80;32.10;;;;;;5092582;28;20444;-66
2022/01/08 00:23:56;;;;;;;1.63;0.90;;;21.80;32.20;;;;;;5093387;28;20885;-65
2022/01/08 00:26:21;;;;;;;1.65;1.00;;;21.80;32.20;;;;;;5093501;28;20473;-66
2022/01/08 00:28:47;;;;;;;2.40;1.00;;;21.80;32.20;;;;;;5092230;28;20437;-68
2022/01/08 00:31:13;;;;;;;1.80;1.05;;;21.80;32.20;;;;;;5093665;28;20738;-66
2022/01/08 00:33:39;;;;;;;2.10;1.00;;;21.80;32.20;;;;;;5092093;28;20890;-66
2022/01/08 00:36:06;;;;;;;2.55;1.05;;;21.70;32.20;;;;;;5093347;28;20386;-66
2022/01/08 00:38:32;;;;;;;1.30;0.90;;;21.70;32.20;;;;;;5093432;28;20389;-66
2022/01/08 00:40:57;;;;;;;1.80;0.90;;;21.70;32.20;;;;;;5093540;28;20473;-65
2022/01/08 00:43:23;;;;;;;1.27;1.00;;;21.70;32.10;;;;;;5092316;28;20402;-66
2022/01/08 00:45:49;;;;;;;2.10;1.20;;;21.70;32.10;;;;;;5092822;28;20400;-65
2022/01/08 00:48:14;;;;;;;1.60;1.00;;;21.70;32.10;;;;;;5093419;28;20390;-68
2022/01/08 00:50:40;;;;;;;1.48;0.90;;;21.70;32.20;;;;;;5093173;28;20493;-67
2022/01/08 00:53:06;;;;;;;1.70;1.07;;;21.70;32.30;;;;;;5093338;28;20865;-69
2022/01/08 00:55:32;;;;;;;2.65;1.25;;;21.70;32.30;;;;;;5092928;28;20443;-66
2022/01/08 00:57:57;;;;;;;1.70;1.00;;;21.60;32.20;;;;;;5092655;28;20387;-68
2022/01/08 01:00:23;;;;;;;1.80;1.00;;;21.60;32.20;;;;;;5093097;28;20871;-67
2022/01/08 01:02:49;;;;;;;1.93;1.10;;;21.60;32.20;;;;;;5093145;28;20390;-66
2022/01/08 01:05:15;;;;;;;1.17;0.75;;;21.70;32.20;;;;;;5092970;28;20394;-66
2022/01/08 01:07:41;;;;;;;1.70;1.10;;;21.70;32.20;;;;;;5092613;28;20455;-66
2022/01/08 01:10:08;;;;;;;2.20;1.10;;;21.60;32.30;;;;;;5092597;28;20418;-65
2022/01/08 01:12:34;;;;;;;1.42;1.00;;;21.60;32.20;;;;;;5092252;28;20441;-65
2022/01/08 01:15:00;;;;;;;2.10;1.00;;;21.60;32.20;;;;;;5092458;28;20392;-66
2022/01/08 01:17:26;;;;;;;1.47;1.00;;;21.50;32.10;;;;;;5092753;28;20461;-65
2022/01/08 01:19:51;;;;;;;3.00;1.10;;;21.60;32.30;;;;;;5092274;28;20444;-68
2022/01/08 01:22:20;;;;;;;2.20;1.13;;;21.60;32.30;;;;;;5092480;28;20431;-66
2022/01/08 01:24:48;;;;;;;1.63;1.00;;;21.60;32.20;;;;;;5091013;28;20825;-66
2022/01/08 01:30:09;;;;;;;1.70;1.00;;;21.60;32.20;;;;;;5091975;28;20484;-66
2022/01/08 01:48:58;;;;;;;2.13;1.00;;;21.50;32.10;;;;;;5092333;28;20424;-66
2022/01/08 01:51:24;;;;;;;1.43;1.00;;;21.60;32.20;;;;;;5092257;28;20386;-66
2022/01/08 01:53:51;;;;;;;1.70;0.80;;;21.50;32.20;;;;;;5091672;28;20416;-66
2022/01/08 01:56:18;;;;;;;1.35;0.85;;;21.50;32.20;;;;;;5092105;28;20382;-66
2022/01/08 01:58:45;;;;;;;1.40;1.00;;;21.50;32.30;;;;;;5091973;28;20402;-66
2022/01/08 02:01:10;;;;;;;2.10;0.93;;;21.50;32.30;;;;;;5090817;28;20382;-69
2022/01/08 02:03:36;;;;;;;1.48;0.98;;;21.50;32.20;;;;;;5091760;28;20400;-66
2022/01/08 02:06:02;;;;;;;1.53;0.87;;;21.50;32.30;;;;;;5090089;28;20386;-69
2022/01/08 02:08:31;;;;;;;1.90;1.00;;;21.50;32.20;;;;;;5090529;28;20929;-65
2022/01/08 02:10:57;;;;;;;1.35;0.90;;;21.50;32.20;;;;;;5090558;28;20421;-66
2022/01/08 02:13:24;;;;;;;1.40;0.90;;;21.50;32.20;;;;;;5091813;28;20382;-66
2022/01/08 02:15:52;;;;;;;1.33;0.80;;;21.40;32.20;;;;;;5091333;28;20382;-66
2022/01/08 02:18:23;;;;;;;2.03;0.90;;;21.40;32.30;;;;;;5091806;28;20977;-66
2022/01/08 02:20:49;;;;;;;1.55;1.00;;;21.40;32.30;;;;;;5091817;28;20447;-66
2022/01/08 02:23:15;;;;;;;1.92;0.82;;;21.40;32.20;;;;;;5091719;28;20386;-67
2022/01/08 02:25:41;;;;;;;1.17;0.80;;;21.40;32.20;;;;;;5090133;28;20397;-68
2022/01/08 02:28:07;;;;;;;2.58;1.00;;;21.40;32.30;;;;;;5090658;28;20389;-66
2022/01/08 02:30:32;;;;;;;2.00;0.90;;;21.40;32.20;;;;;;5091307;28;20422;-67
2022/01/08 02:32:58;;;;;;;1.63;0.90;;;21.40;32.30;;;;;;5090939;28;20391;-66
2022/01/08 02:35:25;;;;;;;1.37;0.90;;;21.40;32.30;;;;;;5091557;28;20393;-66
2022/01/08 02:37:51;;;;;;;1.47;1.00;;;21.30;32.20;;;;;;5091030;28;20378;-66
2022/01/08 02:40:19;;;;;;;1.10;0.80;;;21.30;32.30;;;;;;5091621;28;20438;-66
2022/01/08 02:42:54;;;;;;;1.90;1.00;;;21.30;32.30;;;;;;5089529;28;20390;-67
2022/01/08 02:45:21;;;;;;;1.40;0.82;;;21.40;32.30;;;;;;5091637;28;20807;-67
2022/01/08 02:47:48;;;;;;;1.77;0.98;;;21.30;32.20;;;;;;5089986;28;20889;-66
2022/01/08 02:50:15;;;;;;;1.70;0.90;;;21.30;32.10;;;;;;5091229;28;20414;-67
2022/01/08 02:52:45;;;;;;;1.75;1.00;;;21.30;32.10;;;;;;5091460;28;20374;-68
2022/01/08 02:55:13;;;;;;;1.52;1.10;;;21.30;32.10;;;;;;5091407;28;20465;-67
2022/01/08 02:57:39;;;;;;;1.40;0.90;;;21.30;32.10;;;;;;5091358;28;20469;-67
2022/01/08 03:00:07;;;;;;;1.52;0.95;;;21.30;32.10;;;;;;5090877;28;20484;-69
2022/01/08 03:02:32;;;;;;;1.65;1.02;;;21.30;32.10;;;;;;5091437;28;20382;-67
2022/01/08 03:04:58;;;;;;;1.42;0.80;;;21.30;32.00;;;;;;5091343;28;20879;-66
2022/01/08 03:07:24;;;;;;;1.42;0.98;;;21.30;32.00;;;;;;5091196;28;20478;-66
2022/01/08 03:09:56;;;;;;;1.73;0.90;;;21.30;32.00;;;;;;5091052;28;20735;-66
2022/01/08 03:12:24;;;;;;;1.40;0.90;;;21.30;31.90;;;;;;5091439;28;20388;-68
2022/01/08 03:14:50;;;;;;;1.52;0.90;;;21.20;31.90;;;;;;5091143;28;20389;-69
2022/01/08 03:17:16;;;;;;;1.23;0.80;;;21.20;32.00;;;;;;5091274;28;20410;-67
2022/01/08 03:19:41;;;;;;;1.20;0.90;;;21.20;32.10;;;;;;5089890;28;20429;-66
2022/01/08 03:22:07;;;;;;;1.33;1.00;;;21.20;32.10;;;;;;5090700;28;20382;-66
2022/01/08 03:24:33;;;;;;;1.92;0.82;;;21.20;32.20;;;;;;5091054;28;20385;-69
2022/01/08 03:26:59;;;;;;;1.57;0.90;;;21.20;32.20;;;;;;5090905;28;20421;-66
2022/01/08 03:29:25;;;;;;;1.60;0.90;;;21.20;32.10;;;;;;5091076;28;20409;-67
2022/01/08 03:31:51;;;;;;;1.60;0.87;;;21.20;32.10;;;;;;5090828;28;20430;-66
2022/01/08 03:34:17;;;;;;;1.42;0.90;;;21.20;32.20;;;;;;5091069;28;20888;-66
2022/01/08 03:36:42;;;;;;;1.42;0.93;;;21.20;32.20;;;;;;5091013;28;20393;-66
2022/01/08 03:39:08;;;;;;;1.30;0.85;;;21.20;32.20;;;;;;5091016;28;20405;-66
2022/01/08 03:41:35;;;;;;;1.73;0.95;;;21.20;32.20;;;;;;5090713;28;20378;-67
2022/01/08 03:44:01;;;;;;;1.70;0.80;;;21.20;32.10;;;;;;5089935;28;20390;-66
2022/01/08 03:46:29;;;;;;;2.03;0.80;;;21.20;32.20;;;;;;5094498;28;20389;-67
2022/01/08 03:51:26;;;;;;;1.45;0.88;;;21.10;32.10;;;;;;5094645;28;20397;-67
2022/01/08 03:53:51;;;;;;;0.90;0.70;;;21.20;32.10;;;;;;5094116;28;20379;-67
2022/01/08 03:56:17;;;;;;;1.03;0.80;;;21.10;32.00;;;;;;5094198;28;20390;-67
2022/01/08 03:58:43;;;;;;;1.53;0.80;;;21.10;32.00;;;;;;5094348;28;20465;-67
2022/01/08 04:01:08;;;;;;;1.30;0.77;;;21.10;32.00;;;;;;5094440;28;20738;-68
2022/01/08 04:03:34;;;;;;;1.17;0.90;;;21.20;32.10;;;;;;5094246;28;20386;-66
2022/01/08 04:06:00;;;;;;;1.10;0.82;;;21.20;32.50;;;;;;5093796;28;20382;-68
2022/01/08 04:08:26;;;;;;;1.58;1.00;;;21.20;32.10;;;;;;5093986;28;20444;-66
2022/01/08 04:10:51;;;;;;;1.50;0.87;;;21.20;32.20;;;;;;5094163;28;20830;-66
2022/01/08 04:13:24;;;;;;;1.33;0.77;;;21.20;32.20;;;;;;5094116;28;20862;-67
2022/01/08 04:15:54;;;;;;;1.20;0.80;;;21.20;32.20;;;;;;5092602;28;20390;-69
2022/01/08 04:18:20;;;;;;;1.50;0.73;;;21.10;32.20;;;;;;5094023;28;20401;-66
2022/01/08 04:23:22;;;;;;;1.00;0.80;;;21.10;32.10;;;;;;5093957;28;20400;-67
2022/01/08 04:25:48;;;;;;;1.13;0.87;;;21.10;32.10;;;;;;5093809;28;20902;-66
2022/01/08 04:28:14;;;;;;;1.30;0.80;;;21.10;32.10;;;;;;5093305;28;20390;-66
2022/01/08 04:30:40;;;;;;;1.40;0.90;;;21.10;32.10;;;;;;5093633;28;20410;-66
2022/01/08 04:33:06;;;;;;;1.20;0.80;;;21.10;32.10;;;;;;5093794;28;20393;-66
2022/01/08 04:35:31;;;;;;;1.58;0.90;;;21.10;32.10;;;;;;5093602;28;20418;-67
2022/01/08 04:37:57;;;;;;;1.70;0.90;;;21.20;32.20;;;;;;5093234;28;20546;-67
2022/01/08 04:40:23;;;;;;;1.13;0.80;;;21.10;32.70;;;;;;5093613;28;20402;-68
2022/01/08 04:42:48;;;;;;;1.27;0.80;;;21.10;32.10;;;;;;5093488;28;20366;-67
2022/01/08 04:45:14;;;;;;;1.73;0.80;;;21.10;32.10;;;;;;5093543;28;20392;-67
2022/01/08 04:47:41;;;;;;;1.30;0.80;;;21.10;32.20;;;;;;5093366;28;20382;-66
2022/01/08 04:50:07;;;;;;;2.00;0.90;;;21.00;32.10;;;;;;5091690;28;20422;-67
2022/01/08 04:52:33;;;;;;;1.20;0.80;;;21.00;32.20;;;;;;5091998;28;20865;-66
2022/01/08 04:54:59;;;;;;;1.98;0.90;;;21.00;32.20;;;;;;5093043;28;20393;-66
2022/01/08 04:57:25;;;;;;;1.33;0.80;;;21.00;32.20;;;;;;5092739;28;20879;-66
2022/01/08 04:59:51;;;;;;;1.13;0.80;;;21.00;32.20;;;;;;5092444;28;20443;-67
2022/01/08 05:02:16;;;;;;;2.28;0.95;;;21.00;32.20;;;;;;5092901;28;20876;-66
2022/01/08 05:04:42;;;;;;;1.70;0.97;;;21.00;32.10;;;;;;5091604;28;20386;-66
2022/01/08 05:07:08;;;;;;;1.50;0.80;;;21.00;32.10;;;;;;5093018;28;20382;-66
2022/01/08 05:09:34;;;;;;;1.33;0.90;;;21.00;32.10;;;;;;5092607;28;20421;-69
2022/01/08 05:11:59;;;;;;;1.40;0.80;;;21.00;32.10;;;;;;5092529;28;20767;-66
2022/01/08 05:14:27;;;;;;;1.70;0.85;;;21.00;32.10;;;;;;5091607;28;20398;-66
2022/01/08 05:16:58;;;;;;;1.30;1.00;;;21.00;32.10;;;;;;5091636;28;20889;-66
2022/01/08 05:19:36;;;;;;;2.38;0.93;;;21.00;32.00;;;;;;5091556;28;20761;-70
2022/01/08 05:22:02;;;;;;;1.45;0.85;;;21.00;32.00;;;;;;5092357;28;20576;-67
2022/01/08 05:24:27;;;;;;;1.90;0.90;;;21.00;32.00;;;;;;5092643;28;20954;-66
2022/01/08 05:26:53;;;;;;;1.10;0.80;;;21.00;32.00;;;;;;5092488;28;20477;-66
2022/01/08 05:29:18;;;;;;;1.40;0.80;;;21.00;31.90;;;;;;5092551;28;20402;-66
2022/01/08 05:31:44;;;;;;;1.15;0.90;;;21.00;32.00;;;;;;5091282;28;20406;-66
2022/01/08 05:34:11;;;;;;;2.10;0.90;;;21.00;32.00;;;;;;5092117;28;20378;-66
2022/01/08 05:36:36;;;;;;;1.23;0.80;;;21.00;32.10;;;;;;5091160;28;20867;-66
2022/01/08 05:39:02;;;;;;;1.27;0.70;;;21.00;32.10;;;;;;5092561;28;20498;-66
2022/01/08 05:41:28;;;;;;;1.20;0.80;;;21.00;32.10;;;;;;5091891;28;20766;-66
2022/01/08 05:43:53;;;;;;;1.60;1.00;;;21.00;32.10;;;;;;5092178;28;20739;-66
2022/01/08 05:46:19;;;;;;;1.52;0.90;;;21.00;32.00;;;;;;5092140;28;20763;-67
2022/01/08 05:48:45;;;;;;;1.50;0.90;;;20.90;32.00;;;;;;5092160;28;20878;-65
2022/01/08 05:51:10;;;;;;;2.30;0.90;;;21.00;31.90;;;;;;5092210;28;20900;-66
2022/01/08 05:53:36;;;;;;;1.70;0.98;;;21.00;32.70;;;;;;5092072;28;20382;-66
2022/01/08 05:56:01;;;;;;;2.60;0.90;;;21.00;33.10;;;;;;5091644;28;20390;-68
2022/01/08 05:58:27;;;;;;;1.45;0.90;;;21.10;33.40;;;;;;5092080;28;20386;-66
2022/01/08 06:00:53;;;;;;;2.00;0.97;;;21.20;33.00;;;;;;5090887;28;20394;-68
2022/01/08 06:03:19;;;;;;;1.50;1.08;;;21.20;33.60;;;;;;5092091;28;20746;-68
2022/01/08 06:05:45;;;;;;;2.08;0.90;;;21.20;34.00;;;;;;5090807;28;20413;-65
2022/01/08 06:08:10;;;;;;;1.77;1.00;;;21.30;34.10;;;;;;5089473;28;20394;-65
2022/01/08 06:10:36;;;;;;;1.85;0.90;;;21.30;34.40;;;;;;5090499;28;20413;-65
2022/01/08 06:13:03;;;;;;;1.73;1.00;;;21.30;34.90;;;;;;5089287;28;20397;-65
2022/01/08 06:15:29;;;;;;;2.47;0.93;;;21.30;34.20;;;;;;5088904;28;20394;-65
2022/01/08 06:17:54;;;;;;;2.22;1.10;;;21.40;34.00;;;;;;5090411;28;20391;-68
2022/01/08 06:20:20;;;;;;;2.20;1.03;;;21.40;34.10;;;;;;5091560;28;20439;-69
2022/01/08 06:22:46;;;;;;;2.60;0.80;;;21.40;34.10;;;;;;5091721;28;20473;-68
2022/01/08 06:25:12;;;;;;;2.70;0.82;;;21.30;34.00;;;;;;5090704;28;20390;-66
2022/01/08 06:27:37;;;;;;;2.03;1.00;;;21.30;33.30;;;;;;5090674;28;20428;-65
2022/01/08 06:30:04;;;;;;;1.40;0.90;;;21.30;34.10;;;;;;5091133;28;20413;-65
2022/01/08 06:32:30;;;;;;;2.15;0.80;;;21.30;34.20;;;;;;5091589;28;20412;-64
2022/01/08 06:34:56;;;;;;;1.58;0.90;;;21.30;34.30;;;;;;5105209;28;20402;-65
2022/01/08 06:37:21;;;;;;;2.92;0.80;;;21.30;33.70;;;;;;5111811;28;20380;-66
2022/01/08 06:39:49;;;;;;;1.60;0.77;;;21.30;33.50;;;;;;5111943;28;20407;-66
2022/01/08 06:42:15;;;;;;;1.25;0.70;;;21.30;33.70;;;;;;5111514;28;20945;-66
2022/01/08 06:44:41;;;;;;;1.77;0.80;;;21.30;33.50;;;;;;5111859;28;20482;-66
2022/01/08 06:47:06;;;;;;;1.77;0.70;;;21.30;33.50;;;;;;5111995;28;20851;-66
2022/01/08 06:49:32;;;;;;;2.93;0.93;;;21.20;33.20;;;;;;5111788;28;20503;-69
2022/01/08 06:51:58;;;;;;;1.20;0.70;;;21.20;33.00;;;;;;5111570;28;20822;-65
2022/01/08 06:54:24;;;;;;;1.60;0.80;;;21.20;32.80;;;;;;5111582;28;20372;-66
2022/01/08 06:56:49;;;;;;;1.40;0.90;;;21.20;32.80;;;;;;5111832;28;20845;-70
2022/01/08 06:59:15;;;;;;;2.30;0.80;;;21.20;32.80;;;;;;5111897;28;20384;-66
2022/01/08 07:01:41;;;;;;;2.30;0.80;;;21.20;32.80;;;;;;5111571;28;20449;-65
2022/01/08 07:04:06;;;;;;;1.50;0.88;;;21.10;32.60;;;;;;5111071;28;20380;-66
2022/01/08 07:06:32;;;;;;;1.70;0.80;;;21.10;32.70;;;;;;5111662;28;20380;-66
2022/01/08 07:08:58;;;;;;;1.80;0.82;;;21.10;32.60;;;;;;5109292;28;20404;-67
2022/01/08 07:11:23;;;;;;;1.53;0.80;;;21.10;32.50;;;;;;5110291;28;20443;-67
2022/01/08 07:13:49;;;;;;;2.63;0.90;;;21.10;32.30;;;;;;5111578;28;20392;-67
2022/01/08 07:16:15;;;;;;;2.40;1.00;;;21.00;31.30;;;;;;5111073;28;20423;-66
2022/01/08 07:18:40;;;;;;;2.38;1.10;;;20.90;31.00;;;;;;5111318;28;20388;-67
2022/01/08 07:21:06;;;;;;;3.93;1.67;;;20.80;31.10;;;;;;5115386;28;20383;-68
2022/01/08 07:23:32;;;;;;;3.42;1.27;;;20.80;31.90;;;;;;5115424;28;20441;-69
2022/01/08 07:25:57;;;;;;;3.37;1.00;;;20.80;32.30;;;;;;5113596;28;21117;-65
2022/01/08 07:28:23;;;;;;;3.85;1.20;;;20.80;32.00;;;;;;5114693;28;20380;-66
2022/01/08 07:30:48;;;;;;;5.50;1.27;;;20.80;32.50;;;;;;5114685;28;20423;-66
2022/01/08 07:33:14;;;;;;;4.13;1.10;;;20.80;32.30;;;;;;5115267;28;20884;-67
2022/01/08 07:35:40;;;;;;;3.70;1.20;;;20.80;32.30;;;;;;5114983;28;20868;-66
2022/01/08 07:38:06;;;;;;;3.10;1.23;;;20.80;32.20;;;;;;5114661;28;20392;-65
2022/01/08 07:40:31;;;;;;;5.63;1.10;;;20.80;32.20;;;;;;5114848;28;20381;-66
2022/01/08 07:42:57;;;;;;;4.07;1.20;;;20.80;32.20;;;;;;5114964;28;20380;-66
2022/01/08 07:45:23;;;;;;;2.67;1.10;;;20.90;32.30;;;;;;5114894;28;20396;-66
2022/01/08 07:47:49;;;;;;;3.27;1.20;;;20.80;32.30;;;;;;5115204;28;20429;-67
2022/01/08 07:50:15;;;;;;;3.60;1.15;;;20.90;32.50;;;;;;5114259;28;20418;-66
2022/01/08 07:52:43;;;;;;;3.47;1.17;;;20.80;32.60;;;;;;5114836;28;20385;-66
2022/01/08 07:55:09;;;;;;;3.20;1.20;;;20.80;32.70;;;;;;5114875;28;21034;-67
2022/01/08 07:57:34;;;;;;;4.25;1.15;;;20.80;33.40;;;;;;5114741;28;20384;-67
2022/01/08 08:00:00;;;;;;;3.23;1.00;;;20.80;32.90;;;;;;5114534;28;20437;-66
2022/01/08 08:02:26;;;;;;;3.45;1.10;;;20.80;32.50;;;;;;5114297;28;20388;-65
2022/01/08 08:04:51;;;;;;;2.47;1.00;;;20.90;32.60;;;;;;5114535;28;20388;-66
2022/01/08 08:07:28;;;;;;;5.70;1.30;;;20.90;32.70;;;;;;5114456;28;20380;-66
2022/01/08 08:09:54;;;;;;;2.90;1.20;;;20.90;32.60;;;;;;5114502;28;20400;-66
2022/01/08 08:12:20;;;;;;;1.80;1.20;;;21.00;32.40;;;;;;5112726;28;20507;-70
2022/01/08 08:14:45;;;;;;;4.37;1.10;;;20.90;32.40;;;;;;5084568;28;20376;-65
2022/01/08 08:17:11;;;;;;;2.55;1.08;;;21.00;32.30;;;;;;5069105;28;20471;-68
2022/01/08 08:19:37;;;;;;;3.70;1.30;;;20.90;32.10;;;;;;5063491;28;20457;-68
2022/01/08 08:22:02;;;;;;;3.55;1.17;;;20.90;32.20;;;;;;5070853;28;21026;-67
2022/01/08 08:24:28;;;;;;;5.47;1.20;;;20.80;32.60;;;;;;5093535;28;20937;-68
2022/01/08 08:26:53;;;;;;;2.70;1.00;;;20.80;32.40;;;;;;5094324;28;20968;-67
2022/01/08 08:29:19;;;;;;;2.43;0.90;;;20.90;32.10;;;;;;5093640;28;20439;-68
2022/01/08 08:31:45;;;;;;;4.72;1.20;;;20.90;32.20;;;;;;5093031;28;20382;-66
2022/01/08 08:34:10;;;;;;;2.87;1.10;;;20.90;32.40;;;;;;5094873;28;20374;-67
2022/01/08 08:36:36;;;;;;;4.88;1.17;;;20.90;32.70;;;;;;5094340;28;20386;-66
2022/01/08 08:39:02;;;;;;;6.93;1.20;;;20.90;32.80;;;;;;5093540;28;20382;-68
2022/01/08 08:41:28;;;;;;;2.78;1.20;;;20.90;34.10;;;;;;5094142;28;20904;-67
2022/01/08 08:43:53;;;;;;;5.35;1.30;;;21.00;32.80;;;;;;5092713;28;20378;-68
2022/01/08 08:46:19;;;;;;;6.50;1.43;;;21.10;32.70;;;;;;5091294;28;20405;-68
2022/01/08 08:48:45;;;;;;;5.03;1.30;;;21.20;33.10;;;;;;5091977;28;20428;-66
2022/01/08 08:51:10;;;;;;;3.58;1.10;;;21.30;33.50;;;;;;5091971;28;20410;-67
2022/01/08 08:53:36;;;;;;;3.30;1.10;;;21.40;33.50;;;;;;5093058;28;20405;-67
2022/01/08 08:56:02;;;;;;;3.22;1.20;;;21.40;33.30;;;;;;5092428;28;20386;-67
2022/01/08 08:58:27;;;;;;;4.73;1.40;;;21.40;33.20;;;;;;5092386;28;20444;-68
2022/01/08 09:00:53;;;;;;;1.77;1.00;;;21.50;33.30;;;;;;5094524;28;20406;-68
2022/01/08 09:03:20;;;;;;;2.43;1.30;;;21.50;32.60;;;;;;5093132;28;20394;-69
2022/01/08 09:05:46;;;;;;;2.97;1.10;;;21.50;32.40;;;;;;5092958;28;20436;-69
2022/01/08 09:08:12;;;;;;;2.87;1.10;;;21.60;32.30;;;;;;5092342;28;20438;-68
2022/01/08 09:10:37;;;;;;;3.00;1.20;;;21.60;32.00;;;;;;5091523;28;20405;-68
2022/01/08 09:13:03;;;;;;;3.10;1.30;;;21.60;32.00;;;;;;5092946;28;20378;-70
2022/01/08 09:15:29;;;;;;;5.32;1.33;;;21.60;32.00;;;;;;5099169;28;20423;-67
2022/01/08 09:17:57;;;;;;;6.03;1.43;;;21.60;31.90;;;;;;5104591;28;20388;-66
2022/01/08 09:20:25;;;;;;;11.10;1.70;;;21.70;31.60;;;;;;5108967;28;20445;-69
2022/01/08 09:22:51;;;;;;;8.23;1.90;;;21.70;31.80;;;;;;5095997;28;20506;-68
2022/01/08 09:25:17;;;;;;;10.98;1.80;;;21.80;31.80;;;;;;5105063;28;20882;-69
2022/01/08 09:27:43;;;;;;;10.20;2.05;;;21.90;31.90;;;;;;5102536;28;20471;-69
2022/01/08 09:30:09;;;;;;;9.50;1.80;;;21.90;32.00;;;;;;5097974;28;20445;-68
2022/01/08 09:32:35;;;;;;;12.85;1.83;;;22.00;32.00;;;;;;5108271;28;20384;-68
2022/01/08 09:35:01;;;;;;;17.00;1.90;;;22.00;31.80;;;;;;5094912;28;20531;-69
2022/01/08 09:37:27;;;;;;;9.90;1.92;;;22.00;31.90;;;;;;5104582;28;20382;-68
2022/01/08 09:39:53;;;;;;;8.18;1.50;;;22.00;31.60;;;;;;5103736;28;20752;-70
2022/01/08 09:42:19;;;;;;;9.97;1.70;;;22.00;31.50;;;;;;5096931;28;20471;-68
2022/01/08 09:44:45;;;;;;;12.50;2.00;;;22.00;31.90;;;;;;5093820;28;20759;-68
2022/01/08 09:47:12;;;;;;;10.52;1.80;;;22.00;32.10;;;;;;5103617;28;20380;-69
2022/01/08 09:49:39;;;;;;;8.23;1.80;;;22.00;32.00;;;;;;5096643;28;20870;-70
2022/01/08 09:52:05;;;;;;;5.82;1.90;;;22.10;31.70;;;;;;5108697;28;20388;-69
2022/01/08 09:54:32;;;;;;;10.80;2.00;;;22.10;31.70;;;;;;5104355;28;20783;-70
2022/01/08 09:56:58;;;;;;;22.80;2.85;;;22.10;31.80;;;;;;5096843;28;20484;-67
2022/01/08 09:59:24;;;;;;;15.13;2.30;;;22.10;32.20;;;;;;5108613;28;20380;-69
2022/01/08 10:01:59;;;;;;;16.05;2.20;;;22.10;32.50;;;;;;5093463;28;20390;-69
2022/01/08 10:04:26;;;;;;;8.10;1.90;;;22.10;32.90;;;;;;5092939;28;20384;-65
2022/01/08 10:07:16;;;;;;;9.03;1.83;;;22.10;32.40;;;;;;5102374;28;20382;-65
2022/01/08 10:10:12;;;;;;;8.80;1.80;;;22.20;33.10;;;;;;5091384;28;20409;-67
2022/01/08 10:13:00;;;;;;;6.33;1.70;;;22.20;33.30;;;;;;5090869;28;21641;-69
2022/01/08 10:18:24;;;;;;;7.07;1.90;;;22.30;32.70;;;;;;5088049;28;20872;-66
2022/01/08 10:20:50;;;;;;;7.40;1.80;;;22.20;32.90;;;;;;5073455;28;20472;-66
2022/01/08 10:23:25;;;;;;;7.53;2.10;;;22.30;33.40;;;;;;5073092;28;20754;-69
2022/01/08 10:26:13;;;;;;;10.60;2.30;;;22.30;33.20;;;;;;5048389;28;20890;-66
2022/01/08 10:28:47;;;;;;;9.10;1.98;;;22.30;33.30;;;;;;5070153;28;20768;-69
2022/01/08 10:31:17;;;;;;;6.53;1.80;;;22.30;33.00;;;;;;5034715;28;20496;-66
2022/01/08 10:33:48;;;;;;;6.50;1.88;;;22.30;33.40;;;;;;5033213;28;20432;-67
2022/01/08 10:36:19;;;;;;;6.03;1.90;;;22.40;33.60;;;;;;5050891;28;20873;-68
2022/01/08 10:38:51;;;;;;;11.68;1.90;;;22.30;33.50;;;;;;5051210;28;20386;-65
2022/01/08 10:41:16;;;;;;;7.68;2.17;;;22.40;33.70;;;;;;5051296;28;20428;-68
2022/01/08 10:43:43;;;;;;;9.25;2.05;;;22.40;34.00;;;;;;5051109;28;20421;-65
2022/01/08 10:46:27;;;;;;;5.03;1.70;;;22.40;33.80;;;;;;5033184;28;20769;-68
2022/01/08 10:48:52;;;;;;;7.10;1.88;;;22.50;34.00;;;;;;5051125;28;20390;-65
2022/01/08 10:51:23;;;;;;;7.83;1.90;;;22.50;33.90;;;;;;5051180;28;20503;-66
2022/01/08 10:54:08;;;;;;;8.73;2.22;;;22.50;33.80;;;;;;5052605;28;20373;-66
2022/01/08 10:56:46;;;;;;;7.10;2.67;;;22.70;33.30;;;;;;5054991;28;20421;-68
2022/01/08 10:59:21;;;;;;;7.78;2.45;;;22.70;34.40;;;;;;5055274;28;20389;-70
2022/01/08 11:01:48;;;;;;;6.13;2.22;;;22.70;34.40;;;;;;5054952;28;20873;-67
2022/01/08 11:04:29;;;;;;;5.63;1.90;;;22.70;34.00;;;;;;5054430;28;20382;-69
2022/01/08 11:07:02;;;;;;;4.30;1.80;;;22.80;33.10;;;;;;5055056;28;20421;-67
2022/01/08 11:09:28;;;;;;;6.85;1.90;;;22.80;33.10;;;;;;5071739;28;20946;-67
2022/01/08 11:11:56;;;;;;;6.03;1.83;;;22.80;32.90;;;;;;5074970;28;20399;-70
2022/01/08 11:17:38;;;;;;;5.63;1.67;;;22.70;33.60;;;;;;5043760;28;20407;-65
2022/01/08 11:20:13;;;;;;;5.90;1.50;;;22.60;33.40;;;;;;5066031;28;20391;-66
2022/01/08 11:22:45;;;;;;;4.00;1.70;;;22.60;33.70;;;;;;5073436;28;20384;-65
2022/01/08 11:25:17;;;;;;;3.90;1.50;;;22.50;33.50;;;;;;5073413;28;20399;-69
2022/01/08 11:27:46;;;;;;;3.85;1.40;;;22.40;33.50;;;;;;5073265;28;20395;-66
2022/01/08 11:30:27;;;;;;;4.90;1.40;;;22.40;33.40;;;;;;5073153;28;20416;-69
2022/01/08 11:33:00;;;;;;;2.25;1.08;;;22.30;33.20;;;;;;5073196;28;20390;-69
2022/01/08 11:35:27;;;;;;;3.10;1.20;;;22.30;33.00;;;;;;5073227;28;20424;-68
2022/01/08 11:37:56;;;;;;;3.55;1.20;;;22.20;32.90;;;;;;5073052;28;20395;-68
2022/01/08 11:40:26;;;;;;;2.72;1.10;;;22.20;32.80;;;;;;5072690;28;20899;-68
2022/01/08 11:42:52;;;;;;;2.60;1.10;;;22.10;32.60;;;;;;5073139;28;20394;-67
2022/01/08 11:45:24;;;;;;;2.40;1.02;;;22.10;32.60;;;;;;5073251;28;20436;-69
2022/01/08 11:47:53;;;;;;;1.95;1.02;;;22.10;32.50;;;;;;5072986;28;20391;-69
2022/01/08 11:50:25;;;;;;;2.50;0.90;;;22.00;32.40;;;;;;5071218;28;20427;-68
2022/01/08 11:53:20;;;;;;;2.10;0.80;;;22.10;32.40;;;;;;5073028;28;20392;-66
2022/01/08 11:55:48;;;;;;;2.30;1.10;;;22.20;32.20;;;;;;5071084;28;20392;-69
2022/01/08 11:58:30;;;;;;;2.15;1.10;;;22.20;32.10;;;;;;5072552;28;20482;-66
2022/01/08 12:01:05;;;;;;;1.85;0.77;;;22.20;32.00;;;;;;5072884;28;20735;-68
2022/01/08 12:03:36;;;;;;;2.50;1.00;;;22.10;31.90;;;;;;5072674;28;20380;-69
2022/01/08 12:06:26;;;;;;;1.88;0.80;;;22.10;31.80;;;;;;5071291;28;20792;-66
2022/01/08 12:11:47;;;;;;;3.28;1.02;;;22.10;31.80;;;;;;5072612;28;20403;-68
2022/01/08 12:14:24;;;;;;;2.43;0.70;;;22.10;32.00;;;;;;5072351;28;20965;-68
2022/01/08 12:16:58;;;;;;;2.70;0.70;;;22.10;32.00;;;;;;5072623;28;20429;-68
2022/01/08 12:19:38;;;;;;;1.30;0.70;;;22.10;31.90;;;;;;5072530;28;20379;-69
2022/01/08 12:22:16;;;;;;;2.70;0.70;;;22.00;31.90;;;;;;5072500;28;20392;-66
2022/01/08 12:24:49;;;;;;;2.80;0.60;;;22.00;31.80;;;;;;5072324;28;21023;-68
2022/01/08 12:27:33;;;;;;;2.95;0.70;;;22.00;31.70;;;;;;5072422;28;20852;-65
2022/01/08 12:30:21;;;;;;;2.40;0.90;;;22.10;31.70;;;;;;5071916;28;20415;-66
2022/01/08 12:32:53;;;;;;;2.13;1.00;;;22.10;31.70;;;;;;5074268;28;20391;-67
2022/01/08 12:35:33;;;;;;;1.38;0.70;;;22.10;31.60;;;;;;5072208;28;20801;-69
2022/01/08 12:38:01;;;;;;;6.67;1.20;;;22.10;31.50;;;;;;5087221;28;20770;-65
2022/01/08 12:40:42;;;;;;;4.03;1.13;;;22.10;31.60;;;;;;5090881;28;20820;-65
2022/01/08 12:43:31;;;;;;;3.10;1.08;;;22.10;31.50;;;;;;5091160;28;20386;-66
2022/01/08 12:46:23;;;;;;;2.47;0.90;;;22.00;32.10;;;;;;5090824;28;20426;-65
2022/01/08 12:49:07;;;;;;;2.25;0.80;;;21.90;32.10;;;;;;5099889;28;20398;-66
2022/01/08 12:51:41;;;;;;;2.17;1.00;;;22.00;31.90;;;;;;5090641;28;20417;-66
2022/01/08 12:54:07;;;;;;;2.58;0.90;;;22.00;31.70;;;;;;5070053;28;20404;-65
2022/01/08 12:56:34;;;;;;;3.50;0.90;;;22.10;31.70;;;;;;5076184;28;20531;-64
2022/01/08 12:59:02;;;;;;;2.90;0.88;;;22.10;31.60;;;;;;5091593;28;20397;-64
2022/01/08 13:01:28;;;;;;;3.43;1.30;;;22.10;31.60;;;;;;5091223;28;20914;-65
2022/01/08 13:03:58;;;;;;;1.80;1.05;;;22.10;31.50;;;;;;5091051;28;20447;-65
2022/01/08 13:06:26;;;;;;;2.22;0.88;;;22.10;31.60;;;;;;5090777;28;20386;-68
2022/01/08 13:08:53;;;;;;;3.33;1.00;;;22.10;31.70;;;;;;5091263;28;20414;-68
2022/01/08 13:11:25;;;;;;;2.85;0.95;;;22.10;31.70;;;;;;5091169;28;20413;-65
2022/01/08 13:14:03;;;;;;;2.92;1.00;;;22.10;31.70;;;;;;5091076;28;20385;-65
2022/01/08 13:16:36;;;;;;;4.93;1.30;;;22.10;31.60;;;;;;5090628;28;20394;-68
2022/01/08 13:19:06;;;;;;;3.63;1.23;;;21.90;31.90;;;;;;5089902;28;20394;-66
2022/01/08 13:21:55;;;;;;;3.25;1.27;;;22.00;32.10;;;;;;5089431;28;20398;-65
2022/01/08 13:24:27;;;;;;;5.15;1.20;;;22.00;32.20;;;;;;5089150;28;20401;-69